Time;durP1;ratioP1;P1;durP2;ratioP2;P2;SDS_P1;SDS_P2;PMS_P1;PMS_P2;Temp;Humidity;BMP_temperature;BMP_pressure;BME280_temperature;BME280_humidity;BME280_pressure;Samples;Min_cycle;Max_cycle;Signal;HPM_P1;HPM_P2
2021/07/21 10:39:08;;;;;;;10.50;6.15;;;;;;;25.18;43.95;99493.69;5089320;27;20388;-80
2021/07/21 10:41:35;;;;;;;12.40;5.47;;;;;;;25.32;44.31;99485.66;5077392;28;20052;-79
2021/07/21 10:44:02;;;;;;;10.52;5.50;;;;;;;25.81;41.80;99501.06;5067953;28;20060;-81
2021/07/21 10:46:42;;;;;;;10.35;5.72;;;;;;;25.64;42.55;99504.13;5069883;28;20080;-80
2021/07/21 10:49:23;;;;;;;9.93;5.30;;;;;;;25.87;42.14;99476.84;5071925;28;20396;-80
2021/07/21 10:55:27;;;;;;;10.02;5.90;;;;;;;25.79;41.10;99483.81;5060438;28;20056;-80
2021/07/21 11:00:54;;;;;;;8.52;5.70;;;;;;;25.27;43.18;99493.97;5051993;28;20134;-80
2021/07/21 11:03:23;;;;;;;8.20;5.85;;;;;;;25.38;43.50;99480.97;5067843;28;20106;-80
2021/07/21 11:06:07;;;;;;;7.38;5.45;;;;;;;25.82;41.90;99485.19;5054767;28;20061;-80
2021/07/21 11:08:44;;;;;;;11.30;5.57;;;;;;;25.97;41.56;99469.31;5050559;28;20107;-80
2021/07/21 11:11:20;;;;;;;13.32;5.80;;;;;;;26.16;41.96;99467.94;5059900;28;20570;-80
2021/07/21 11:13:57;;;;;;;8.73;5.55;;;;;;;26.20;41.35;99477.41;5048637;28;20053;-80
2021/07/21 11:16:40;;;;;;;10.93;5.80;;;;;;;26.29;40.91;99475.72;5055731;28;20056;-80
2021/07/21 11:19:29;;;;;;;8.90;6.22;;;;;;;26.48;40.36;99474.00;5048233;28;20106;-80
2021/07/21 11:22:00;;;;;;;10.20;6.20;;;;;;;26.43;40.35;99482.34;5067510;28;20056;-81
2021/07/21 11:24:29;;;;;;;11.38;6.18;;;;;;;26.32;40.47;99484.34;5059702;28;20410;-80
2021/07/21 11:26:58;;;;;;;13.55;6.15;;;;;;;25.97;41.76;99490.78;5076824;28;20088;-80
2021/07/21 11:29:47;;;;;;;8.60;5.72;;;;;;;26.32;42.58;99473.19;5068564;28;20056;-80
2021/07/21 11:32:38;;;;;;;8.93;5.70;;;;;;;26.23;41.34;99476.84;5067930;28;20065;-79
2021/07/21 11:35:41;;;;;;;10.25;5.90;;;;;;;26.46;41.14;99476.22;5048149;28;20295;-81
2021/07/21 11:38:19;;;;;;;8.75;5.80;;;;;;;26.35;39.98;99474.59;5047355;28;20057;-80
2021/07/21 11:40:47;;;;;;;9.32;5.85;;;;;;;26.27;40.87;99466.78;5047959;28;20056;-80
2021/07/21 11:43:38;;;;;;;11.70;6.47;;;;;;;26.77;40.70;99473.38;5047669;28;20049;-81
2021/07/21 11:46:10;;;;;;;9.75;5.82;;;;;;;26.55;41.64;99475.66;5065955;28;20491;-80
2021/07/21 11:48:37;;;;;;;10.82;6.53;;;;;;;26.29;42.11;99479.31;5063481;28;20539;-80
2021/07/21 11:51:10;;;;;;;15.23;6.05;;;;;;;26.62;40.03;99473.41;5037712;28;20048;-79
2021/07/21 11:53:38;;;;;;;7.93;6.00;;;;;;;26.85;39.25;99458.00;5034560;28;20059;-79
2021/07/21 11:56:10;;;;;;;12.48;6.32;;;;;;;27.43;39.56;99454.63;5038949;28;20447;-79
2021/07/21 11:58:38;;;;;;;11.52;6.25;;;;;;;27.76;38.28;99459.69;5034800;28;20165;-79
2021/07/21 12:01:06;;;;;;;8.35;6.20;;;;;;;27.34;38.96;99461.94;5042519;28;20045;-79
2021/07/21 12:03:49;;;;;;;9.73;5.70;;;;;;;27.40;38.38;99462.75;5042765;28;20044;-79
2021/07/21 12:06:27;;;;;;;9.00;6.05;;;;;;;27.57;38.43;99456.78;5047465;28;20068;-79
2021/07/21 12:08:55;;;;;;;12.65;5.82;;;;;;;27.81;37.44;99442.91;5039723;28;20378;-80
2021/07/21 12:11:23;;;;;;;11.20;6.00;;;;;;;27.18;38.30;99467.59;5036060;28;20392;-80
2021/07/21 12:14:01;;;;;;;10.05;6.25;;;;;;;27.52;38.10;99447.31;5047823;28;20225;-80
2021/07/21 12:16:29;;;;;;;11.77;6.10;;;;;;;27.26;39.86;99449.41;5040503;28;20136;-79
2021/07/21 12:19:01;;;;;;;10.80;6.63;;;;;;;27.38;37.55;99440.69;5040422;28;20045;-81
2021/07/21 12:21:29;;;;;;;12.27;6.40;;;;;;;27.32;37.88;99459.44;5052734;28;20572;-81
2021/07/21 12:24:01;;;;;;;11.82;5.97;;;;;;;27.25;38.26;99453.34;5042867;28;20054;-80
2021/07/21 12:26:39;;;;;;;14.07;6.25;;;;;;;27.55;38.97;99455.09;5034529;28;20049;-81
2021/07/21 12:29:07;;;;;;;10.75;7.15;;;;;;;27.50;38.14;99440.34;5047118;28;20054;-80
2021/07/21 12:31:34;;;;;;;13.07;6.68;;;;;;;27.24;37.23;99462.81;5034007;28;20444;-80
2021/07/21 12:34:17;;;;;;;11.25;6.90;;;;;;;27.28;37.89;99443.53;5043476;28;20455;-81
2021/07/21 12:36:49;;;;;;;12.48;6.88;;;;;;;27.60;39.76;99445.84;5053333;28;20053;-81
2021/07/21 12:39:24;;;;;;;8.65;6.35;;;;;;;27.34;37.99;99450.78;5052357;28;20057;-80
2021/07/21 12:41:51;;;;;;;10.57;6.80;;;;;;;27.16;38.99;99432.75;5051077;28;20090;-81
2021/07/21 12:44:26;;;;;;;11.00;6.38;;;;;;;27.19;38.91;99454.50;5052440;28;20052;-81
2021/07/21 12:47:10;;;;;;;11.60;6.63;;;;;;;27.17;37.75;99454.78;5048138;28;20127;-81
2021/07/21 12:49:37;;;;;;;12.27;7.57;;;;;;;27.14;38.97;99440.53;5047214;28;20080;-81
2021/07/21 12:52:05;;;;;;;10.40;6.50;;;;;;;27.49;39.04;99433.09;5039522;28;20408;-81
2021/07/21 12:54:33;;;;;;;9.77;6.18;;;;;;;27.49;37.85;99450.69;5040013;28;20048;-81
2021/07/21 12:56:59;;;;;;;11.10;6.60;;;;;;;27.50;37.99;99440.34;5047900;28;20041;-81
2021/07/21 12:59:36;;;;;;;12.70;7.25;;;;;;;27.15;38.33;99431.06;5033598;28;20103;-81
2021/07/21 13:02:11;;;;;;;8.95;6.15;;;;;;;27.24;39.26;99431.28;5035123;28;20403;-81
2021/07/21 13:04:41;;;;;;;9.43;5.97;;;;;;;27.64;37.56;99427.41;5033225;28;20559;-79
2021/07/21 13:07:10;;;;;;;11.00;6.68;;;;;;;27.65;37.68;99444.97;5039958;28;20450;-80
2021/07/21 13:09:37;;;;;;;10.50;7.22;;;;;;;27.57;37.01;99438.06;5037553;28;20056;-78
2021/07/21 13:12:15;;;;;;;10.27;7.18;;;;;;;27.40;37.33;99440.41;5042982;28;20058;-79
2021/07/21 13:14:44;;;;;;;10.82;7.20;;;;;;;27.28;37.01;99441.59;5041294;28;20107;-80
2021/07/21 13:17:12;;;;;;;9.57;6.28;;;;;;;27.26;37.61;99440.19;5033639;28;20053;-79
2021/07/21 13:19:39;;;;;;;10.00;6.22;;;;;;;27.54;36.76;99433.88;5035849;28;20056;-80
2021/07/21 13:22:21;;;;;;;14.85;6.80;;;;;;;27.40;36.20;99420.88;5033295;28;20049;-79
2021/07/21 13:24:48;;;;;;;10.00;7.53;;;;;;;27.85;35.98;99425.25;5036907;28;20092;-80
2021/07/21 13:27:15;;;;;;;12.15;6.80;;;;;;;27.67;35.46;99412.00;5052595;28;20102;-80
2021/07/21 13:29:43;;;;;;;13.27;6.50;;;;;;;27.81;36.14;99421.38;5046684;28;20049;-80
2021/07/21 13:32:21;;;;;;;10.15;7.00;;;;;;;27.97;36.70;99415.66;5048215;28;20049;-80
2021/07/21 13:35:02;;;;;;;13.77;6.63;;;;;;;28.10;35.72;99419.75;5047112;28;20056;-80
2021/07/21 13:37:29;;;;;;;9.13;6.20;;;;;;;27.99;36.09;99407.84;5032525;28;20079;-80
2021/07/21 13:40:05;;;;;;;12.70;6.50;;;;;;;28.04;34.99;99419.78;5034075;28;20049;-79
2021/07/21 13:42:31;;;;;;;10.00;6.40;;;;;;;28.09;35.06;99396.53;5044217;28;20049;-80
2021/07/21 13:45:05;;;;;;;16.83;6.80;;;;;;;28.57;34.75;99416.13;5045851;28;20100;-80
2021/07/21 13:47:33;;;;;;;10.70;6.13;;;;;;;28.15;34.33;99411.28;5033616;28;20436;-80
2021/07/21 13:50:06;;;;;;;11.20;6.03;;;;;;;27.77;34.21;99408.28;5033858;28;20048;-80
2021/07/21 13:52:33;;;;;;;8.50;6.55;;;;;;;27.69;35.33;99406.97;5040393;28;20049;-79
2021/07/21 13:55:04;;;;;;;11.70;6.63;;;;;;;27.89;35.33;99415.16;5032305;28;20056;-79
2021/07/21 13:57:31;;;;;;;13.63;6.28;;;;;;;27.76;34.87;99398.25;5036457;28;20110;-79
2021/07/21 13:59:59;;;;;;;10.30;6.15;;;;;;;28.00;36.44;99406.69;5049926;28;20463;-79
2021/07/21 14:02:30;;;;;;;10.43;5.97;;;;;;;27.64;35.41;99407.84;5034901;28;20059;-79
2021/07/21 14:05:00;;;;;;;8.98;6.15;;;;;;;28.10;34.26;99400.19;5051775;28;20052;-79
2021/07/21 14:07:26;;;;;;;12.38;6.47;;;;;;;28.48;32.69;99417.91;5049267;28;20050;-80
2021/07/21 14:09:54;;;;;;;11.07;6.70;;;;;;;28.40;33.98;99408.22;5032676;28;20045;-80
2021/07/21 14:12:21;;;;;;;9.70;6.93;;;;;;;28.29;33.75;99391.84;5033473;28;20038;-80
2021/07/21 14:14:48;;;;;;;12.10;6.00;;;;;;;28.19;33.75;99395.63;5042681;28;20056;-80
2021/07/21 14:17:15;;;;;;;10.70;6.35;;;;;;;28.62;33.87;99412.47;5035101;28;20408;-78
2021/07/21 14:19:46;;;;;;;9.68;5.78;;;;;;;28.37;32.64;99400.44;5035696;28;20045;-79
2021/07/21 14:22:13;;;;;;;9.52;6.43;;;;;;;28.24;33.79;99406.72;5051205;28;20041;-79
2021/07/21 14:24:40;;;;;;;7.88;5.55;;;;;;;28.10;32.75;99394.59;5045790;28;20306;-78
2021/07/21 14:27:07;;;;;;;8.23;5.47;;;;;;;27.80;33.81;99397.34;5041755;28;20052;-78
2021/07/21 14:29:34;;;;;;;11.68;5.70;;;;;;;27.82;34.82;99397.91;5049431;28;20493;-78
2021/07/21 14:32:01;;;;;;;9.07;5.65;;;;;;;28.04;32.37;99396.59;5035011;28;20107;-78
2021/07/21 14:34:28;;;;;;;7.22;5.15;;;;;;;28.25;33.59;99397.22;5030500;28;20053;-79
2021/07/21 14:36:56;;;;;;;7.35;5.15;;;;;;;27.72;34.45;99398.81;5033321;28;20104;-78
2021/07/21 14:39:24;;;;;;;9.57;5.10;;;;;;;28.02;34.42;99394.09;5038489;28;20053;-78
2021/07/21 14:41:53;;;;;;;12.57;6.03;;;;;;;27.92;33.91;99384.97;5040442;28;20095;-78
2021/07/21 14:44:20;;;;;;;10.57;5.60;;;;;;;27.91;32.33;99392.50;5030488;28;20049;-79
2021/07/21 14:46:48;;;;;;;9.65;5.38;;;;;;;27.90;32.81;99394.47;5031308;28;20144;-78
2021/07/21 14:49:17;;;;;;;9.63;5.50;;;;;;;27.92;32.64;99394.19;5033608;28;20045;-78
2021/07/21 14:51:45;;;;;;;9.32;5.65;;;;;;;27.64;32.25;99388.31;5030388;28;20045;-78
2021/07/21 14:54:14;;;;;;;7.68;4.93;;;;;;;27.97;32.33;99388.59;5035440;28;20488;-78
2021/07/21 14:56:42;;;;;;;8.93;5.63;;;;;;;28.05;33.73;99381.50;5042637;28;20512;-78
2021/07/21 14:59:09;;;;;;;6.82;4.95;;;;;;;28.13;34.37;99383.66;5048597;28;20049;-78
2021/07/21 15:01:38;;;;;;;10.38;5.90;;;;;;;28.43;32.20;99392.81;5041805;28;20052;-78
2021/07/21 15:04:06;;;;;;;10.57;5.20;;;;;;;28.49;32.63;99396.38;5038496;28;20555;-79
2021/07/21 15:06:32;;;;;;;11.10;5.28;;;;;;;28.28;33.76;99396.63;5031215;28;20481;-78
2021/07/21 15:09:00;;;;;;;6.95;4.93;;;;;;;28.27;33.25;99403.34;5046613;28;20045;-78
2021/07/21 15:11:29;;;;;;;9.90;5.10;;;;;;;28.44;32.85;99394.50;5031660;28;20099;-78
2021/07/21 15:13:56;;;;;;;6.60;4.95;;;;;;;28.62;31.92;99394.84;5033501;28;20092;-78
2021/07/21 15:16:23;;;;;;;7.60;4.78;;;;;;;28.52;30.87;99390.19;5031288;28;20053;-78
2021/07/21 15:18:50;;;;;;;8.48;5.13;;;;;;;28.50;31.67;99382.09;5043267;28;20045;-78
2021/07/21 15:21:17;;;;;;;7.25;5.03;;;;;;;28.03;31.63;99376.22;5032145;28;20053;-77
2021/07/21 15:23:44;;;;;;;6.75;4.72;;;;;;;28.29;31.23;99394.66;5031501;28;20456;-78
2021/07/21 15:26:11;;;;;;;6.50;4.47;;;;;;;28.40;31.27;99393.41;5034159;28;20053;-79
2021/07/21 15:28:39;;;;;;;11.25;5.38;;;;;;;28.34;32.08;99392.63;5051032;28;20049;-78
2021/07/21 15:31:06;;;;;;;8.73;5.50;;;;;;;28.06;31.96;99384.00;5043578;28;20480;-80
2021/07/21 15:33:33;;;;;;;8.63;5.45;;;;;;;28.09;32.58;99385.34;5053912;28;20095;-79
2021/07/21 15:36:01;;;;;;;11.52;5.03;;;;;;;27.97;31.04;99384.94;5048718;28;20085;-78
2021/07/21 15:38:29;;;;;;;8.40;4.55;;;;;;;27.53;33.41;99384.75;5049403;28;20055;-79
2021/07/21 15:40:56;;;;;;;8.18;5.18;;;;;;;27.95;31.48;99384.38;5045150;28;20545;-79
2021/07/21 15:43:23;;;;;;;10.93;4.45;;;;;;;28.04;31.92;99385.44;5045094;28;20049;-79
2021/07/21 15:45:51;;;;;;;7.15;4.82;;;;;;;28.00;31.69;99381.56;5034856;28;20049;-78
2021/07/21 15:48:18;;;;;;;6.35;4.45;;;;;;;28.42;32.11;99388.34;5041468;28;20057;-79
2021/07/21 15:50:46;;;;;;;5.75;4.60;;;;;;;28.20;30.93;99372.94;5053854;28;20091;-79
2021/07/21 15:53:13;;;;;;;7.78;4.38;;;;;;;27.74;31.13;99378.97;5033735;28;20103;-78
2021/07/21 15:55:41;;;;;;;7.88;4.68;;;;;;;27.90;30.64;99379.69;5054571;28;20053;-79
2021/07/21 15:58:11;;;;;;;6.82;4.22;;;;;;;27.76;30.82;99373.09;5052409;28;20519;-78
2021/07/21 16:00:38;;;;;;;;;;;;;;;27.90;31.87;99388.06;5046705;28;20059;-78
2021/07/21 16:03:06;;;;;;;5.43;4.22;;;;;;;27.87;30.75;99383.88;5042330;28;19921;-79
2021/07/21 16:05:33;;;;;;;7.28;4.47;;;;;;;28.15;31.19;99384.19;5044282;28;20485;-79
2021/07/21 16:08:00;;;;;;;9.57;4.22;;;;;;;28.19;31.62;99376.88;5039134;28;20052;-79
2021/07/21 16:10:30;;;;;;;6.80;4.45;;;;;;;28.04;31.31;99377.03;5047831;28;20038;-79
2021/07/21 16:12:57;;;;;;;5.93;4.30;;;;;;;28.06;31.13;99383.16;5034401;28;20049;-79
2021/07/21 16:15:24;;;;;;;6.75;4.60;;;;;;;27.95;32.04;99381.59;5035868;28;20049;-79
2021/07/21 16:17:51;;;;;;;8.98;4.38;;;;;;;27.99;31.16;99377.94;5043183;28;20045;-79
2021/07/21 16:20:19;;;;;;;7.95;4.97;;;;;;;27.72;32.33;99382.06;5037335;28;20068;-79
2021/07/21 16:22:46;;;;;;;6.68;5.18;;;;;;;27.81;32.73;99373.91;5043252;28;20091;-79
2021/07/21 16:25:16;;;;;;;7.18;4.28;;;;;;;27.87;33.18;99364.34;5033491;28;20488;-79
2021/07/21 16:27:42;;;;;;;;;;;;;;;27.99;32.31;99379.91;5037482;28;20044;-78
2021/07/21 16:30:11;;;;;;;7.47;4.63;;;;;;;27.76;33.60;99362.75;5053578;28;19975;-79
2021/07/21 16:32:38;;;;;;;7.20;4.63;;;;;;;27.70;33.87;99370.38;5050224;28;20755;-79
2021/07/21 16:35:06;;;;;;;8.77;4.50;;;;;;;27.51;33.93;99367.47;5037116;28;20045;-79
2021/07/21 16:37:34;;;;;;;8.45;4.78;;;;;;;27.52;33.54;99371.94;5046207;28;20057;-79
2021/07/21 16:40:01;;;;;;;5.57;3.97;;;;;;;27.49;33.15;99363.28;5038130;28;20049;-79
2021/07/21 16:42:28;;;;;;;8.85;4.22;;;;;;;27.55;33.33;99362.97;5032988;28;20468;-79
2021/07/21 16:44:55;;;;;;;6.68;4.43;;;;;;;27.69;32.92;99351.94;5032984;28;20065;-79
2021/07/21 16:47:21;;;;;;;11.75;5.07;;;;;;;27.69;33.41;99367.88;5041049;28;20049;-79
2021/07/21 16:49:48;;;;;;;8.38;4.47;;;;;;;27.87;33.29;99371.88;5047660;28;20057;-79
2021/07/21 16:52:15;;;;;;;7.57;4.53;;;;;;;27.49;34.40;99366.06;5051798;28;20049;-79
